createdAt,value
2019-01-21T00:01:54.095Z,40.23
2019-01-21T00:04:24.588Z,42.03
2019-01-21T00:06:54.356Z,40.52
2019-01-21T00:09:24.961Z,40.28
2019-01-21T00:11:54.640Z,41.40
2019-01-21T00:14:24.455Z,40.08
2019-01-21T00:16:54.153Z,40.43
2019-01-21T00:19:24.136Z,42.08
2019-01-21T00:21:53.868Z,38.63
2019-01-21T00:24:23.760Z,41.10
2019-01-21T00:26:53.711Z,43.98
2019-01-21T00:29:23.424Z,41.08
2019-01-21T00:31:55.152Z,43.65
2019-01-21T00:34:25.055Z,44.33
2019-01-21T00:36:54.876Z,44.48
2019-01-21T00:39:24.697Z,40.15
2019-01-21T00:41:54.503Z,42.65
2019-01-21T00:44:24.592Z,43.00
2019-01-21T00:46:54.308Z,41.70
2019-01-21T00:49:24.040Z,41.73
2019-01-21T00:51:53.882Z,41.70
2019-01-21T00:54:23.607Z,41.08
2019-01-21T00:56:53.403Z,42.40
2019-01-21T00:59:23.077Z,42.95
2019-01-21T01:01:52.895Z,41.33
2019-01-21T01:04:22.635Z,43.02
2019-01-21T01:06:52.352Z,42.88
2019-01-21T01:09:22.119Z,42.40
2019-01-21T01:11:51.932Z,43.87
2019-01-21T01:14:24.578Z,40.17
2019-01-21T01:16:54.220Z,41.15
2019-01-21T01:19:24.527Z,40.12
2019-01-21T01:21:54.159Z,42.25
2019-01-21T01:24:23.968Z,40.90
2019-01-21T01:26:53.747Z,43.83
2019-01-21T01:29:23.394Z,41.25
2019-01-21T01:31:54.368Z,40.35
2019-01-21T01:34:24.438Z,40.20
2019-01-21T01:36:54.286Z,43.52
2019-01-21T01:39:23.999Z,43.50
2019-01-21T01:41:53.743Z,43.42
2019-01-21T01:44:23.409Z,41.83
2019-01-21T01:46:53.222Z,42.38
2019-01-21T01:49:23.355Z,42.60
2019-01-21T01:51:53.207Z,41.83
2019-01-21T01:54:23.044Z,43.10
2019-01-21T01:56:52.832Z,40.85
2019-01-21T01:59:22.887Z,40.45
2019-01-21T02:01:52.788Z,41.73
2019-01-21T02:04:22.655Z,40.35
2019-01-21T02:06:52.507Z,39.48
2019-01-21T02:09:34.493Z,41.18
2019-01-21T02:12:04.419Z,40.38
2019-01-21T02:14:34.060Z,43.30
2019-01-21T02:17:03.591Z,39.38
2019-01-21T02:19:34.579Z,42.35
2019-01-21T02:22:04.713Z,41.70
2019-01-21T02:24:39.503Z,43.58
2019-01-21T02:27:21.315Z,40.48
2019-01-21T02:30:33.320Z,40.33
2019-01-21T02:33:47.706Z,41.75
2019-01-21T02:36:47.890Z,39.40
2019-01-21T02:39:48.547Z,43.48
2019-01-21T02:42:29.813Z,40.98
2019-01-21T02:45:31.891Z,41.63
2019-01-21T02:48:23.249Z,42.93
2019-01-21T02:51:38.533Z,40.80
2019-01-21T02:54:27.196Z,38.95
2019-01-21T02:57:30.501Z,39.58
2019-01-21T03:00:42.004Z,38.73
2019-01-21T03:22:27.102Z,41.35
2019-01-21T03:25:27.944Z,42.20
2019-01-21T03:28:46.569Z,41.48
2019-01-21T03:31:50.316Z,42.70
2019-01-21T03:35:12.999Z,37.03
2019-01-21T03:38:21.171Z,39.67
2019-01-21T03:41:18.674Z,40.50
2019-01-21T03:44:04.435Z,40.50
2019-01-21T03:46:59.465Z,38.55
2019-01-21T03:50:09.909Z,41.28
2019-01-21T03:53:18.089Z,39.53
2019-01-21T03:55:49.107Z,40.67
2019-01-21T03:58:55.155Z,42.03
2019-01-21T04:02:09.362Z,36.25
2019-01-21T04:05:13.217Z,38.25
2019-01-21T04:08:26.803Z,39.13
2019-01-21T04:11:46.652Z,39.40
2019-01-21T04:15:14.669Z,38.42
2019-01-21T04:18:14.481Z,40.48
2019-01-21T04:21:29.278Z,39.18
2019-01-21T04:24:22.007Z,39.90
2019-01-21T04:27:23.685Z,38.83
2019-01-21T04:30:23.507Z,39.90
2019-01-21T04:33:10.137Z,38.53
2019-01-21T04:36:31.118Z,40.38
2019-01-21T04:39:35.961Z,36.95
2019-01-21T04:42:24.524Z,36.58
2019-01-21T04:45:03.840Z,38.23
2019-01-21T04:48:19.947Z,41.35
2019-01-21T04:51:32.528Z,41.42
2019-01-21T04:54:52.818Z,39.20
2019-01-21T04:57:58.266Z,38.50
2019-01-21T05:01:02.730Z,39.88
2019-01-21T05:04:13.696Z,40.92
2019-01-21T05:07:16.014Z,41.95
2019-01-21T05:10:32.784Z,36.90
2019-01-21T05:13:23.116Z,41.30
2019-01-21T05:16:16.548Z,42.80
2019-01-21T05:19:10.375Z,40.30
2019-01-21T05:22:18.154Z,41.30
2019-01-21T05:25:11.978Z,40.43
2019-01-21T05:28:14.576Z,40.65
2019-01-21T05:31:28.617Z,43.17
2019-01-21T05:34:20.886Z,42.10
2019-01-21T05:37:23.048Z,41.88
2019-01-21T05:40:25.318Z,41.48
2019-01-21T05:43:31.681Z,39.95
2019-01-21T05:46:38.675Z,41.60
2019-01-21T05:49:58.724Z,40.25
2019-01-21T05:53:03.974Z,42.55
2019-01-21T05:56:23.861Z,40.03
2019-01-21T05:59:39.469Z,40.83
2019-01-21T06:02:42.460Z,36.88
2019-01-21T06:05:42.869Z,42.45
2019-01-21T06:08:58.914Z,41.75
2019-01-21T06:11:50.458Z,39.45
2019-01-21T06:15:21.918Z,41.85
2019-01-21T06:18:16.080Z,43.42
2019-01-21T06:21:16.653Z,43.87
2019-01-21T06:24:19.881Z,41.08
2019-01-21T06:27:22.027Z,43.45
2019-01-21T06:30:20.131Z,41.75
2019-01-21T06:33:45.413Z,40.00
2019-01-21T06:36:40.793Z,42.78
2019-01-21T06:40:06.149Z,39.67
2019-01-21T06:43:04.791Z,41.18
2019-01-21T06:46:15.247Z,39.60
2019-01-21T06:49:27.594Z,43.83
2019-01-21T06:52:34.078Z,44.23
2019-01-21T06:55:30.573Z,44.77
2019-01-21T06:58:54.623Z,40.67
2019-01-21T07:02:23.806Z,41.70
2019-01-21T07:05:40.658Z,39.45
2019-01-21T07:08:47.803Z,41.65
2019-01-21T07:11:58.468Z,41.37
2019-01-21T07:15:10.033Z,44.05
2019-01-21T07:18:14.006Z,42.17
2019-01-21T07:20:58.087Z,40.65
2019-01-21T07:23:47.244Z,42.40
2019-01-21T07:26:58.305Z,42.35
2019-01-21T07:30:13.858Z,45.45
2019-01-21T07:33:20.038Z,42.00
2019-01-21T07:36:17.220Z,41.40
2019-01-21T07:39:18.494Z,40.70
2019-01-21T07:42:34.141Z,44.88
2019-01-21T07:45:24.367Z,40.15
2019-01-21T07:48:35.151Z,42.60
2019-01-21T07:51:31.154Z,42.15
2019-01-21T07:54:46.664Z,36.88
2019-01-21T07:58:24.358Z,42.67
2019-01-21T08:01:15.220Z,40.10
2019-01-21T08:04:20.696Z,42.60
2019-01-21T08:07:32.909Z,42.55
2019-01-21T08:10:42.465Z,39.03
2019-01-21T08:13:45.835Z,41.95
2019-01-21T08:16:50.783Z,40.38
2019-01-21T08:19:36.583Z,40.35
2019-01-21T08:22:36.861Z,44.10
2019-01-21T08:25:53.702Z,46.18
2019-01-21T08:29:00.551Z,37.95
2019-01-21T08:31:58.246Z,37.65
2019-01-21T08:35:09.727Z,39.85
2019-01-21T08:38:22.031Z,42.43
2019-01-21T08:41:33.214Z,44.80
2019-01-21T08:44:33.264Z,41.85
2019-01-21T08:47:28.152Z,40.67
2019-01-21T08:50:47.847Z,39.75
2019-01-21T08:53:27.559Z,40.78
2019-01-21T08:56:26.420Z,41.90
2019-01-21T08:59:27.644Z,40.70
2019-01-21T09:02:24.551Z,39.55
2019-01-21T09:05:46.916Z,37.90
2019-01-21T09:08:59.395Z,39.75
2019-01-21T09:12:13.034Z,41.63
2019-01-21T09:15:09.328Z,41.83
2019-01-21T09:18:25.996Z,40.92
2019-01-21T09:21:27.574Z,41.70
2019-01-21T09:24:46.038Z,41.42
2019-01-21T09:27:38.829Z,40.30
2019-01-21T09:31:01.162Z,37.98
2019-01-21T09:34:21.944Z,39.78
2019-01-21T09:37:42.403Z,40.33
2019-01-21T09:40:55.248Z,38.95
2019-01-21T09:44:14.643Z,39.88
2019-01-21T09:46:49.190Z,40.00
2019-01-21T09:49:17.549Z,42.30
2019-01-21T09:52:19.603Z,38.90
2019-01-21T09:54:49.896Z,41.53
2019-01-21T09:57:26.557Z,41.68
2019-01-21T10:00:01.368Z,38.95
2019-01-21T10:02:42.228Z,38.10
2019-01-21T10:05:14.418Z,39.67
2019-01-21T10:08:22.424Z,41.23
2019-01-21T10:11:29.580Z,38.00
2019-01-21T10:14:35.098Z,39.50
2019-01-21T10:17:29.976Z,37.85
2019-01-21T10:20:29.003Z,38.55
2019-01-21T10:23:55.664Z,35.33
2019-01-21T10:27:21.311Z,38.30
2019-01-21T10:30:06.685Z,39.18
2019-01-21T10:33:12.070Z,38.08
2019-01-21T10:36:23.475Z,38.50
2019-01-21T10:39:45.492Z,35.43
2019-01-21T10:42:40.950Z,37.25
2019-01-21T10:45:29.479Z,37.05
2019-01-21T10:48:28.916Z,37.00
2019-01-21T10:51:48.787Z,36.77
2019-01-21T10:55:01.511Z,37.95
2019-01-21T10:57:56.176Z,38.35
2019-01-21T11:01:11.464Z,37.40
2019-01-21T11:04:08.450Z,39.53
2019-01-21T11:07:07.420Z,37.90
2019-01-21T11:10:12.606Z,39.42
2019-01-21T11:13:35.080Z,37.83
2019-01-21T11:16:19.295Z,37.50
2019-01-21T11:19:34.715Z,41.35
2019-01-21T11:22:42.243Z,37.42
2019-01-21T11:25:52.970Z,39.27
2019-01-21T11:29:22.617Z,39.55
2019-01-21T11:32:31.133Z,37.88
2019-01-21T11:35:16.663Z,37.55
2019-01-21T11:38:16.133Z,37.23
2019-01-21T11:41:20.486Z,39.05
2019-01-21T11:44:16.092Z,37.10
2019-01-21T11:47:20.794Z,37.45
2019-01-21T11:50:43.970Z,38.30
2019-01-21T11:53:47.018Z,38.67
2019-01-21T11:57:03.637Z,38.95
2019-01-21T12:00:07.609Z,37.48
2019-01-21T12:02:50.479Z,38.50
2019-01-21T12:05:44.517Z,36.90
2019-01-21T12:08:51.449Z,44.25
2019-01-21T12:11:52.299Z,37.70
2019-01-21T12:14:57.005Z,41.00
2019-01-21T12:17:49.063Z,40.40
2019-01-21T12:20:49.595Z,39.90
2019-01-21T12:23:58.728Z,38.65
2019-01-21T12:27:13.297Z,38.28
2019-01-21T12:30:19.971Z,41.05
2019-01-21T12:33:08.371Z,35.40
2019-01-21T12:35:53.588Z,38.40
2019-01-21T12:38:53.612Z,37.40
2019-01-21T12:42:01.222Z,38.40
2019-01-21T12:44:57.231Z,35.30
2019-01-21T12:47:43.090Z,35.43
2019-01-21T12:50:42.416Z,37.70
2019-01-21T12:54:04.978Z,37.03
2019-01-21T12:57:12.170Z,36.20
2019-01-21T13:00:23.904Z,36.13
2019-01-21T13:03:20.803Z,36.17
2019-01-21T13:06:30.083Z,34.67
2019-01-21T13:09:11.051Z,35.48
2019-01-21T13:12:00.120Z,33.08
2019-01-21T13:14:56.350Z,36.35
2019-01-21T13:17:51.821Z,36.55
2019-01-21T13:20:43.511Z,37.40
2019-01-21T13:23:41.222Z,36.65
2019-01-21T13:26:52.332Z,38.10
2019-01-21T13:29:45.396Z,36.40
2019-01-21T13:32:54.729Z,35.92
2019-01-21T13:35:47.394Z,35.78
2019-01-21T13:39:20.351Z,36.80
2019-01-21T13:42:07.418Z,36.45
2019-01-21T13:45:09.727Z,36.20
2019-01-21T13:48:03.671Z,35.33
2019-01-21T13:50:58.146Z,35.35
2019-01-21T13:54:21.226Z,39.05
2019-01-21T13:57:43.659Z,34.15
2019-01-21T14:01:15.277Z,34.90
2019-01-21T14:04:32.584Z,34.15
2019-01-21T14:07:58.201Z,34.38
2019-01-21T14:11:16.154Z,35.40
2019-01-21T14:14:19.203Z,36.10
2019-01-21T14:17:37.286Z,36.38
2019-01-21T14:20:20.596Z,36.50
2019-01-21T14:23:11.933Z,35.80
2019-01-21T14:26:24.229Z,36.40
2019-01-21T14:29:23.855Z,35.48
2019-01-21T14:32:22.032Z,37.15
2019-01-21T14:35:38.776Z,33.78
2019-01-21T14:38:44.488Z,33.65
2019-01-21T14:41:42.270Z,34.27
2019-01-21T14:44:54.305Z,38.40
2019-01-21T14:47:55.732Z,35.28
2019-01-21T14:50:42.294Z,35.70
2019-01-21T14:53:57.530Z,34.58
2019-01-21T14:56:43.604Z,34.80
2019-01-21T14:59:40.546Z,33.92
2019-01-21T15:02:34.520Z,35.88
2019-01-21T15:05:30.139Z,35.35
2019-01-21T15:08:33.083Z,37.88
2019-01-21T15:11:50.425Z,34.33
2019-01-21T15:14:44.203Z,35.45
2019-01-21T15:18:12.677Z,35.95
2019-01-21T15:20:59.422Z,34.58
2019-01-21T15:23:51.189Z,34.48
2019-01-21T15:27:05.033Z,32.50
2019-01-21T15:30:18.105Z,33.00
2019-01-21T15:33:40.984Z,36.88
2019-01-21T15:36:29.166Z,35.58
2019-01-21T15:39:19.606Z,37.55
2019-01-21T15:42:32.926Z,36.73
2019-01-21T15:45:41.926Z,38.42
2019-01-21T15:48:31.160Z,36.13
2019-01-21T15:51:17.962Z,37.08
2019-01-21T15:54:20.949Z,37.95
2019-01-21T15:57:03.740Z,35.95
2019-01-21T16:00:22.701Z,36.63
2019-01-21T16:03:02.378Z,38.73
2019-01-21T16:06:24.016Z,37.95
2019-01-21T16:09:09.177Z,40.00
2019-01-21T16:11:53.611Z,38.98
2019-01-21T16:14:36.629Z,41.18
2019-01-21T16:17:56.678Z,40.80
2019-01-21T16:20:36.544Z,39.58
2019-01-21T16:23:36.316Z,39.20
2019-01-21T16:26:24.709Z,39.90
2019-01-21T16:29:35.730Z,37.60
2019-01-21T16:32:49.883Z,37.93
2019-01-21T16:35:48.515Z,38.85
2019-01-21T16:38:40.055Z,37.30
2019-01-21T16:41:50.768Z,37.53
2019-01-21T16:44:20.370Z,38.15
2019-01-21T16:46:50.910Z,38.63
2019-01-21T16:49:21.015Z,37.70
2019-01-21T16:51:50.837Z,39.13
2019-01-21T16:54:21.496Z,37.50
2019-01-21T16:56:51.172Z,39.45
2019-01-21T16:59:21.247Z,39.20
2019-01-21T17:01:50.829Z,38.38
2019-01-21T17:04:20.520Z,40.20
2019-01-21T17:06:50.222Z,41.15
2019-01-21T17:09:20.043Z,40.43
2019-01-21T17:11:49.986Z,41.08
2019-01-21T17:14:19.670Z,41.68
2019-01-21T17:16:49.210Z,41.98
2019-01-21T17:19:18.831Z,41.42
2019-01-21T17:21:48.586Z,39.83
2019-01-21T17:24:18.291Z,39.58
2019-01-21T17:26:48.207Z,41.23
2019-01-21T17:29:18.041Z,40.33
2019-01-21T17:31:47.633Z,41.65
2019-01-21T17:34:17.607Z,42.58
2019-01-21T17:36:47.285Z,39.95
2019-01-21T17:39:17.144Z,41.08
2019-01-21T17:41:47.245Z,40.50
2019-01-21T17:44:17.066Z,42.35
2019-01-21T17:46:46.693Z,45.15
2019-01-21T17:49:16.529Z,43.08
2019-01-21T17:51:46.107Z,44.42
2019-01-21T17:54:15.933Z,42.05
2019-01-21T17:56:45.795Z,42.43
2019-01-21T17:59:15.363Z,42.65
2019-01-21T18:01:45.060Z,41.80
2019-01-21T18:04:15.396Z,41.88
2019-01-21T18:06:45.117Z,42.95
2019-01-21T18:09:15.051Z,42.10
2019-01-21T18:11:44.770Z,44.05
2019-01-21T18:14:14.944Z,45.12
2019-01-21T18:16:45.007Z,43.28
2019-01-21T18:19:14.892Z,39.58
2019-01-21T18:21:44.642Z,42.43
2019-01-21T18:24:14.203Z,43.35
2019-01-21T18:26:43.870Z,41.75
2019-01-21T18:29:14.021Z,39.98
2019-01-21T18:31:43.590Z,41.25
2019-01-21T18:34:13.481Z,42.85
2019-01-21T18:36:43.221Z,41.08
2019-01-21T18:39:13.572Z,42.23
2019-01-21T18:41:44.935Z,42.27
2019-01-21T18:44:14.680Z,42.95
2019-01-21T18:46:44.547Z,41.98
2019-01-21T18:49:14.587Z,39.20
2019-01-21T18:51:46.772Z,42.17
2019-01-21T18:54:16.224Z,41.33
2019-01-21T18:56:46.041Z,41.75
2019-01-21T18:59:15.675Z,39.10
2019-01-21T19:01:45.686Z,41.95
2019-01-21T19:04:15.970Z,43.50
2019-01-21T19:06:46.035Z,42.00
2019-01-21T19:09:16.307Z,41.88
2019-01-21T19:11:46.191Z,43.05
2019-01-21T19:14:16.482Z,42.23
2019-01-21T19:16:46.229Z,41.13
2019-01-21T19:19:15.870Z,45.00
2019-01-21T19:21:53.384Z,41.35
2019-01-21T19:24:18.301Z,43.65
2019-01-21T19:26:48.665Z,43.55
2019-01-21T19:29:20.743Z,42.17
2019-01-21T19:31:51.581Z,42.20
2019-01-21T19:34:21.509Z,41.45
2019-01-21T19:36:51.332Z,42.80
2019-01-21T19:39:22.279Z,41.37
2019-01-21T19:41:52.189Z,41.70
2019-01-21T19:44:22.162Z,41.58
2019-01-21T19:46:52.257Z,40.63
2019-01-21T19:49:22.849Z,42.88
2019-01-21T19:51:52.958Z,41.77
2019-01-21T19:54:23.897Z,42.43
2019-01-21T19:56:53.572Z,43.13
2019-01-21T19:59:24.061Z,43.02
2019-01-21T20:01:53.683Z,41.70
2019-01-21T20:04:24.058Z,42.35
2019-01-21T20:06:54.269Z,39.58
2019-01-21T20:09:24.728Z,44.40
2019-01-21T20:11:55.515Z,44.58
2019-01-21T20:14:26.172Z,42.93
2019-01-21T20:16:55.998Z,44.25
2019-01-21T20:19:25.699Z,44.40
2019-01-21T20:21:55.457Z,43.48
2019-01-21T20:24:25.868Z,40.80
2019-01-21T20:26:55.589Z,43.23
2019-01-21T20:29:25.158Z,41.73
2019-01-21T20:31:54.964Z,41.75
2019-01-21T20:34:24.681Z,41.65
2019-01-21T20:36:54.423Z,41.95
2019-01-21T20:39:24.926Z,41.35
2019-01-21T20:41:54.731Z,41.55
2019-01-21T20:44:24.594Z,42.80
2019-01-21T20:46:54.192Z,40.80
2019-01-21T20:49:24.022Z,42.53
2019-01-21T20:51:53.980Z,44.45
2019-01-21T20:54:27.754Z,42.23
2019-01-21T20:56:57.871Z,39.85
2019-01-21T20:59:28.264Z,42.33
2019-01-21T21:01:58.079Z,41.18
2019-01-21T21:04:27.885Z,40.52
2019-01-21T21:06:57.597Z,40.52
2019-01-21T21:09:28.128Z,39.83
2019-01-21T21:11:57.801Z,40.30
2019-01-21T21:14:28.048Z,40.25
2019-01-21T21:16:57.801Z,42.45
2019-01-21T21:19:27.680Z,39.20
2019-01-21T21:21:57.816Z,44.08
2019-01-21T21:24:28.237Z,44.18
2019-01-21T21:26:57.931Z,41.83
2019-01-21T21:29:27.540Z,43.85
2019-01-21T21:31:59.760Z,42.33
2019-01-21T21:34:30.104Z,41.95
2019-01-21T21:36:59.969Z,40.35
2019-01-21T21:39:30.383Z,43.80
2019-01-21T21:42:00.807Z,42.80
2019-01-21T21:44:30.662Z,41.08
2019-01-21T21:47:00.429Z,42.38
2019-01-21T21:49:30.254Z,43.15
2019-01-21T21:52:00.197Z,43.65
2019-01-21T21:54:30.687Z,43.52
2019-01-21T21:57:00.707Z,43.90
2019-01-21T21:59:30.382Z,42.85
2019-01-21T22:02:00.334Z,44.67
2019-01-21T22:04:31.061Z,43.80
2019-01-21T22:07:01.744Z,40.88
2019-01-21T22:09:33.069Z,40.33
2019-01-21T22:12:02.858Z,43.98
2019-01-21T22:14:33.272Z,43.05
2019-01-21T22:17:03.300Z,43.58
2019-01-21T22:19:33.080Z,42.30
2019-01-21T22:22:02.817Z,42.93
2019-01-21T22:24:33.213Z,41.00
2019-01-21T22:27:02.925Z,43.52
2019-01-21T22:29:32.781Z,43.78
2019-01-21T22:32:02.466Z,42.40
2019-01-21T22:34:32.399Z,42.15
2019-01-21T22:37:02.079Z,43.80
2019-01-21T22:39:32.005Z,44.93
2019-01-21T22:42:01.638Z,42.62
2019-01-21T22:44:33.700Z,44.48
2019-01-21T22:47:03.304Z,43.20
2019-01-21T22:49:33.011Z,41.95
2019-01-21T22:52:02.885Z,43.50
2019-01-21T22:54:32.720Z,43.85
2019-01-21T22:57:02.767Z,44.65
2019-01-21T22:59:32.966Z,43.92
2019-01-21T23:02:02.724Z,43.87
2019-01-21T23:04:32.980Z,42.62
2019-01-21T23:07:02.813Z,45.70
2019-01-21T23:09:33.219Z,44.40
2019-01-21T23:12:02.958Z,41.35
2019-01-21T23:14:33.055Z,43.30
2019-01-21T23:17:02.758Z,43.33
2019-01-21T23:19:32.497Z,43.70
2019-01-21T23:22:02.172Z,42.53
2019-01-21T23:24:34.577Z,43.35
2019-01-21T23:27:04.273Z,40.70
2019-01-21T23:29:34.393Z,43.73
2019-01-21T23:32:03.983Z,42.98
2019-01-21T23:34:34.036Z,45.33
2019-01-21T23:37:03.915Z,44.05
2019-01-21T23:39:33.739Z,42.43
2019-01-21T23:42:03.937Z,41.92
2019-01-21T23:44:33.747Z,41.83
2019-01-21T23:47:03.995Z,41.88
2019-01-21T23:49:34.256Z,43.68
2019-01-21T23:52:03.873Z,40.15
2019-01-21T23:54:35.822Z,41.23
2019-01-21T23:57:05.497Z,38.90
2019-01-21T23:59:35.161Z,41.65
